Time;durP1;ratioP1;P1;durP2;ratioP2;P2;SDS_P1;SDS_P2;PMS_P1;PMS_P2;Temp;Humidity;BMP_temperature;BMP_pressure;BME280_temperature;BME280_humidity;BME280_pressure;Samples;Min_cycle;Max_cycle;Signal;HPM_P1;HPM_P2
2022/03/02 00:01:38;;;;;;;43.30;27.23;;;;;;;;;;5034919;28;20449;-62
2022/03/02 00:04:04;;;;;;;43.80;27.50;;;;;;;;;;5034438;28;20052;-62
2022/03/02 00:06:30;;;;;;;43.50;27.27;;;;;;;;;;5033523;28;20051;-62
2022/03/02 00:08:56;;;;;;;40.63;26.42;;;;;;;;;;5051819;28;20045;-62
2022/03/02 00:11:22;;;;;;;41.80;26.77;;;;;;;;;;5034367;28;20052;-62
2022/03/02 00:13:48;;;;;;;42.38;26.10;;;;;;;;;;5033519;28;20119;-62
2022/03/02 00:16:14;;;;;;;42.38;26.27;;;;;;;;;;5051557;28;20091;-62
2022/03/02 00:18:41;;;;;;;46.00;26.88;;;;;;;;;;5034480;28;20044;-62
2022/03/02 00:21:07;;;;;;;37.72;24.20;;;;;;;;;;5033545;28;20045;-62
2022/03/02 00:23:33;;;;;;;44.50;27.15;;;;;;;;;;5034023;28;20056;-62
2022/03/02 00:25:59;;;;;;;39.80;25.48;;;;;;;;;;5017440;28;20048;-62
2022/03/02 00:28:25;;;;;;;46.08;25.70;;;;;;;;;;5017079;28;20178;-62
2022/03/02 00:30:51;;;;;;;45.05;27.70;;;;;;;;;;5033873;28;20502;-62
2022/03/02 00:33:18;;;;;;;39.75;25.80;;;;;;;;;;5033971;28;20041;-62
2022/03/02 00:35:43;;;;;;;38.05;25.73;;;;;;;;;;5016463;28;20122;-62
2022/03/02 00:38:11;;;;;;;41.38;25.23;;;;;;;;;;5033804;28;20080;-62
2022/03/02 00:40:40;;;;;;;41.28;24.75;;;;;;;;;;5034236;28;20053;-62
2022/03/02 00:43:07;;;;;;;39.45;25.58;;;;;;;;;;5033732;28;20049;-62
2022/03/02 00:45:33;;;;;;;39.20;24.83;;;;;;;;;;5034689;28;20110;-62
2022/03/02 00:48:00;;;;;;;45.67;25.50;;;;;;;;;;5033116;28;20410;-62
2022/03/02 00:50:26;;;;;;;38.42;24.13;;;;;;;;;;5033892;28;20374;-62
2022/03/02 00:52:52;;;;;;;41.13;26.77;;;;;;;;;;5033526;28;20095;-62
2022/03/02 00:55:18;;;;;;;39.05;26.58;;;;;;;;;;5033047;28;20070;-62
2022/03/02 00:57:44;;;;;;;38.92;24.13;;;;;;;;;;5033718;28;20045;-62
2022/03/02 01:00:11;;;;;;;39.83;24.95;;;;;;;;;;5033451;28;20124;-62
2022/03/02 01:02:37;;;;;;;42.90;25.13;;;;;;;;;;5016893;28;20052;-62
2022/03/02 01:05:04;;;;;;;37.70;24.80;;;;;;;;;;5033702;28;20504;-62
2022/03/02 01:07:30;;;;;;;37.70;23.67;;;;;;;;;;5033586;28;20382;-62
2022/03/02 01:09:56;;;;;;;39.58;25.50;;;;;;;;;;5016782;28;20131;-62
2022/03/02 01:12:22;;;;;;;43.00;26.50;;;;;;;;;;5033663;28;20566;-62
2022/03/02 01:14:48;;;;;;;35.38;23.98;;;;;;;;;;5017203;28;20037;-62
2022/03/02 01:17:14;;;;;;;39.83;25.50;;;;;;;;;;5016720;28;20086;-62
2022/03/02 01:19:40;;;;;;;38.53;25.02;;;;;;;;;;5034085;28;20045;-62
2022/03/02 01:22:07;;;;;;;42.05;25.75;;;4.80;99.90;;;;;;5051298;28;20041;-62
2022/03/02 01:24:32;;;;;;;40.72;24.20;;;5.00;99.90;;;;;;5033348;28;20040;-62
2022/03/02 01:26:58;;;;;;;38.55;23.83;;;5.00;99.90;;;;;;5035654;28;20531;-62
2022/03/02 01:29:24;;;;;;;40.30;24.33;;;4.90;99.90;;;;;;5037273;28;20047;-62
2022/03/02 01:31:50;;;;;;;40.92;24.45;;;4.90;99.90;;;;;;5036756;28;20057;-62
2022/03/02 01:34:15;;;;;;;39.08;24.80;;;4.90;99.90;;;;;;5037010;28;20044;-62
2022/03/02 01:36:41;;;;;;;39.60;25.65;;;4.90;99.90;;;;;;5054797;28;20463;-62
2022/03/02 01:39:07;;;;;;;40.80;25.20;;;4.90;99.90;;;;;;5036126;28;20132;-62
2022/03/02 01:41:34;;;;;;;41.60;26.55;;;4.60;99.90;;;;;;5036871;28;20053;-62
2022/03/02 01:43:59;;;;;;;41.88;26.00;;;4.90;99.90;;;;;;5036392;28;20056;-62
2022/03/02 01:46:25;;;;;;;41.42;24.95;;;4.80;99.90;;;;;;5037104;28;20045;-62
2022/03/02 01:48:51;;;;;;;41.97;26.40;;;4.80;99.90;;;;;;5036978;28;20124;-62
2022/03/02 01:51:18;;;;;;;42.15;25.00;;;4.80;99.90;;;;;;5035755;28;20470;-62
2022/03/02 01:53:44;;;;;;;45.03;25.73;;;4.80;99.90;;;;;;5036476;28;20040;-62
2022/03/02 01:56:10;;;;;;;44.67;27.60;;;4.80;99.90;;;;;;5036417;28;20037;-62
2022/03/02 01:58:36;;;;;;;39.65;24.58;;;4.80;99.90;;;;;;5035827;28;20386;-62
2022/03/02 02:01:03;;;;;;;41.15;25.42;;;4.80;99.90;;;;;;5036619;28;20047;-62
2022/03/02 02:03:29;;;;;;;38.13;23.73;;;4.70;99.90;;;;;;5053121;28;20049;-62
2022/03/02 02:05:55;;;;;;;40.33;24.67;;;4.70;99.90;;;;;;5035824;28;20059;-62
2022/03/02 02:08:22;;;;;;;40.60;25.40;;;4.70;99.90;;;;;;5053989;28;20037;-62
2022/03/02 02:10:48;;;;;;;41.80;24.50;;;4.60;99.90;;;;;;5036307;28;20486;-62
2022/03/02 02:13:14;;;;;;;40.72;24.52;;;;;;;;;;5035486;28;20116;-62
2022/03/02 02:15:40;;;;;;;41.88;26.15;;;4.70;99.90;;;;;;5035966;28;20036;-62
2022/03/02 02:18:05;;;;;;;43.88;25.73;;;4.60;99.90;;;;;;5036423;28;20501;-62
2022/03/02 02:20:38;;;;;;;42.47;26.10;;;4.50;99.90;;;;;;5035286;28;20124;-62
2022/03/02 02:23:04;;;;;;;43.75;25.95;;;4.50;99.90;;;;;;5036110;28;20043;-62
2022/03/02 02:25:30;;;;;;;41.85;26.00;;;4.50;99.90;;;;;;5036020;28;20127;-62
2022/03/02 02:27:56;;;;;;;46.10;28.08;;;5.10;99.90;;;;;;5035522;28;20045;-62
2022/03/02 02:30:21;;;;;;;49.53;28.85;;;4.30;99.90;;;;;;5035900;28;20485;-62
2022/03/02 02:32:47;;;;;;;45.58;26.85;;;4.30;99.90;;;;;;5035857;28;20045;-62
2022/03/02 02:35:13;;;;;;;43.05;27.52;;;4.30;99.90;;;;;;5035220;28;20076;-62
2022/03/02 02:37:39;;;;;;;49.30;28.38;;;4.20;99.90;;;;;;5018916;28;20048;-62
2022/03/02 02:40:12;;;;;;;45.25;26.77;;;4.10;99.90;;;;;;5018976;28;20045;-62
2022/03/02 02:42:39;;;;;;;48.28;27.52;;;4.20;99.90;;;;;;5018967;28;20040;-62
2022/03/02 02:45:06;;;;;;;48.75;28.30;;;4.10;99.90;;;;;;5036096;28;20079;-62
2022/03/02 02:47:31;;;;;;;47.97;27.63;;;4.10;99.90;;;;;;5051772;28;20037;-62
2022/03/02 02:49:57;;;;;;;50.38;29.15;;;4.10;99.90;;;;;;5053377;28;20043;-62
2022/03/02 02:52:23;;;;;;;47.58;27.67;;;4.00;99.90;;;;;;5035231;28;20045;-62
2022/03/02 02:54:49;;;;;;;48.75;28.85;;;4.00;99.90;;;;;;5035191;28;20390;-62
2022/03/02 02:57:16;;;;;;;48.40;28.23;;;4.00;99.90;;;;;;5035762;28;20083;-62
2022/03/02 02:59:42;;;;;;;52.63;27.83;;;3.90;99.90;;;;;;5035768;28;20107;-62
2022/03/02 03:02:08;;;;;;;51.08;28.95;;;4.30;99.90;;;;;;5034219;28;20402;-62
2022/03/02 03:04:33;;;;;;;49.25;28.58;;;4.00;99.90;;;;;;5035610;28;20142;-62
2022/03/02 03:06:59;;;;;;;49.20;28.60;;;3.70;99.90;;;;;;5035335;28;20116;-62
2022/03/02 03:09:24;;;;;;;53.13;30.52;;;3.80;99.90;;;;;;5034545;28;20033;-62
2022/03/02 03:11:50;;;;;;;48.85;28.38;;;3.90;99.90;;;;;;5035602;28;20080;-62
2022/03/02 03:14:16;;;;;;;49.70;29.77;;;3.70;99.90;;;;;;5053091;28;20044;-62
2022/03/02 03:16:42;;;;;;;50.80;31.05;;;3.70;99.90;;;;;;5033968;28;20041;-62
2022/03/02 03:19:09;;;;;;;50.22;29.05;;;3.70;99.90;;;;;;5035295;28;20049;-62
2022/03/02 03:21:35;;;;;;;54.63;30.70;;;3.70;99.90;;;;;;5035476;28;20051;-62
2022/03/02 03:24:01;;;;;;;51.58;29.98;;;3.70;99.90;;;;;;5034176;28;20053;-62
2022/03/02 03:26:27;;;;;;;51.15;29.98;;;3.70;99.90;;;;;;5034902;28;20048;-62
2022/03/02 03:28:53;;;;;;;51.30;28.30;;;;;;;;;;5052655;28;20072;-62
2022/03/02 03:31:19;;;;;;;50.72;27.98;;;3.70;99.90;;;;;;5052147;28;20102;-62
2022/03/02 03:33:45;;;;;;;50.70;29.30;;;3.60;99.90;;;;;;5034820;28;20033;-62
2022/03/02 03:36:11;;;;;;;51.22;28.02;;;3.80;99.90;;;;;;5035128;28;20041;-62
2022/03/02 03:38:36;;;;;;;53.42;29.67;;;3.50;99.90;;;;;;5034015;28;20047;-62
2022/03/02 03:41:02;;;;;;;53.17;29.67;;;3.50;99.90;;;;;;5018346;28;20131;-62
2022/03/02 03:43:28;;;;;;;54.95;29.67;;;3.60;99.90;;;;;;5034742;28;20087;-62
2022/03/02 03:45:53;;;;;;;55.22;30.30;;;3.50;99.90;;;;;;5051895;28;20029;-62
2022/03/02 03:48:19;;;;;;;49.17;28.77;;;3.60;99.90;;;;;;5052165;28;20506;-62
2022/03/02 03:50:45;;;;;;;46.95;28.33;;;3.60;99.90;;;;;;5033021;28;20045;-62
2022/03/02 03:53:11;;;;;;;52.42;30.25;;;4.40;99.90;;;;;;5034067;28;20044;-62
2022/03/02 03:55:40;;;;;;;51.72;28.90;;;3.60;99.90;;;;;;5034748;28;20041;-62
2022/03/02 03:58:07;;;;;;;50.47;29.90;;;3.60;99.90;;;;;;5034065;28;20036;-62
2022/03/02 04:00:33;;;;;;;52.70;28.98;;;3.70;99.90;;;;;;5034506;28;20045;-62
2022/03/02 04:02:59;;;;;;;49.70;29.23;;;3.70;99.90;;;;;;5051939;28;20048;-62
2022/03/02 04:05:24;;;;;;;51.60;30.40;;;3.70;99.90;;;;;;5033871;28;20386;-62
2022/03/02 04:07:50;;;;;;;56.03;30.35;;;3.70;99.90;;;;;;5051837;28;20536;-62
2022/03/02 04:10:17;;;;;;;50.92;30.08;;;3.80;99.90;;;;;;5034500;28;20069;-62
2022/03/02 04:12:44;;;;;;;54.78;32.03;;;3.80;99.90;;;;;;5033908;28;20425;-62
2022/03/02 04:15:10;;;;;;;56.70;30.30;;;3.80;99.90;;;;;;5034095;28;20379;-62
2022/03/02 04:17:36;;;;;;;55.53;31.77;;;3.80;99.90;;;;;;5034277;28;20045;-62
2022/03/02 04:20:04;;;;;;;49.95;30.05;;;3.80;99.90;;;;;;5033548;28;20375;-62
2022/03/02 04:22:29;;;;;;;57.65;30.42;;;3.80;99.90;;;;;;5034298;28;20037;-62
2022/03/02 04:24:55;;;;;;;49.10;29.02;;;3.70;99.90;;;;;;5034218;28;20029;-62
2022/03/02 04:27:21;;;;;;;53.33;30.45;;;3.70;99.90;;;;;;5033176;28;20469;-62
2022/03/02 04:29:46;;;;;;;50.55;31.65;;;3.70;99.90;;;;;;5033754;28;20041;-62
2022/03/02 04:32:12;;;;;;;51.03;30.88;;;3.70;99.90;;;;;;5034055;28;20048;-62
2022/03/02 04:34:38;;;;;;;54.78;32.20;;;3.60;99.90;;;;;;5051282;28;20048;-62
2022/03/02 04:37:04;;;;;;;60.42;33.28;;;3.60;99.90;;;;;;5034024;28;20045;-62
2022/03/02 04:39:30;;;;;;;57.95;33.40;;;3.50;99.90;;;;;;5033391;28;20064;-62
2022/03/02 04:41:55;;;;;;;52.35;29.48;;;3.50;99.90;;;;;;5050925;28;20045;-62
2022/03/02 04:44:21;;;;;;;50.65;30.85;;;3.50;99.90;;;;;;5033608;28;20090;-62
2022/03/02 04:46:50;;;;;;;50.83;30.63;;;3.50;99.90;;;;;;5034028;28;20116;-62
2022/03/02 04:49:18;;;;;;;51.75;30.25;;;4.30;99.90;;;;;;5016924;28;20402;-62
2022/03/02 04:51:48;;;;;;;51.05;30.00;;;3.60;99.90;;;;;;5047409;28;20054;-62
2022/03/02 04:56:59;;;;;;;49.10;30.45;;;3.40;99.90;;;;;;5014410;28;20107;-62
2022/03/02 04:59:25;;;;;;;51.72;30.58;;;3.40;99.90;;;;;;5047091;28;20505;-62
2022/03/02 05:01:51;;;;;;;50.15;28.75;;;3.30;99.90;;;;;;5015972;28;20049;-62
2022/03/02 05:04:16;;;;;;;52.58;30.60;;;3.40;99.90;;;;;;5036021;28;20490;-62
2022/03/02 05:06:42;;;;;;;49.05;28.13;;;3.30;99.90;;;;;;5037941;28;20434;-62
2022/03/02 05:09:08;;;;;;;50.38;28.77;;;3.30;99.90;;;;;;5036895;28;20549;-62
2022/03/02 05:11:33;;;;;;;54.72;31.70;;;3.30;99.90;;;;;;5038057;28;20041;-62
2022/03/02 05:13:59;;;;;;;47.17;28.63;;;3.30;99.90;;;;;;5055684;28;21116;-62
2022/03/02 05:16:24;;;;;;;52.80;30.02;;;3.20;99.90;;;;;;5036727;28;20037;-62
2022/03/02 05:18:50;;;;;;;57.42;30.20;;;3.20;99.90;;;;;;5037976;28;20049;-62
2022/03/02 05:21:16;;;;;;;49.50;28.20;;;3.20;99.90;;;;;;5017553;28;20052;-62
2022/03/02 05:23:41;;;;;;;52.55;29.90;;;3.20;99.90;;;;;;5017033;28;20052;-62
2022/03/02 05:26:07;;;;;;;54.63;29.30;;;3.20;99.90;;;;;;5042196;28;20033;-62
2022/03/02 05:28:33;;;;;;;47.90;27.27;;;3.10;99.90;;;;;;5037406;28;20393;-62
2022/03/02 05:30:59;;;;;;;51.33;28.45;;;3.30;99.90;;;;;;5042882;28;20103;-62
2022/03/02 05:33:25;;;;;;;50.10;29.10;;;3.10;99.90;;;;;;5016994;28;20551;-62
2022/03/02 05:35:50;;;;;;;48.90;28.98;;;3.10;99.90;;;;;;5017620;28;20120;-62
2022/03/02 05:38:16;;;;;;;49.30;30.75;;;3.10;99.90;;;;;;5000653;28;20099;-62
2022/03/02 05:40:42;;;;;;;51.03;29.33;;;3.10;99.90;;;;;;5033429;28;20060;-62
2022/03/02 05:43:08;;;;;;;46.38;28.48;;;3.10;99.90;;;;;;5033034;28;20056;-62
2022/03/02 05:45:34;;;;;;;50.55;29.30;;;3.00;99.90;;;;;;5034038;28;20367;-62
2022/03/02 05:47:59;;;;;;;43.08;27.17;;;3.00;99.90;;;;;;5033620;28;20107;-62
2022/03/02 05:50:25;;;;;;;68.90;44.45;;;2.90;99.90;;;;;;5033068;28;20421;-62
2022/03/02 05:52:51;;;;;;;98.03;58.65;;;3.10;99.90;;;;;;5033267;28;20045;-61
2022/03/02 05:55:16;;;;;;;85.60;52.78;;;2.90;99.90;;;;;;5034801;28;20091;-62
2022/03/02 05:57:42;;;;;;;51.85;32.90;;;2.80;99.90;;;;;;5033574;28;20486;-62
2022/03/02 06:00:09;;;;;;;46.75;28.80;;;2.80;99.90;;;;;;5033236;28;20044;-62
2022/03/02 06:02:35;;;;;;;63.67;39.53;;;2.90;99.90;;;;;;5033732;28;20046;-62
2022/03/02 06:05:00;;;;;;;57.65;34.47;;;2.90;99.90;;;;;;5032627;28;20044;-62
2022/03/02 06:07:26;;;;;;;67.70;39.55;;;2.80;99.90;;;;;;5017055;28;20391;-62
2022/03/02 06:09:52;;;;;;;58.63;36.75;;;2.80;99.90;;;;;;5033202;28;20041;-62
2022/03/02 06:12:18;;;;;;;51.15;32.80;;;2.80;99.90;;;;;;5032536;28;20056;-62
2022/03/02 06:14:44;;;;;;;61.40;35.45;;;2.80;99.90;;;;;;5032574;28;20517;-62
2022/03/02 06:17:11;;;;;;;59.13;40.25;;;2.70;99.90;;;;;;5016722;28;20084;-62
2022/03/02 06:19:37;;;;;;;65.75;45.10;;;2.70;99.90;;;;;;5032619;28;20052;-62
2022/03/02 06:22:04;;;;;;;48.95;31.05;;;2.80;99.90;;;;;;5034188;28;20055;-62
2022/03/02 06:24:30;;;;;;;44.92;29.52;;;2.80;99.90;;;;;;5034274;28;20410;-61
2022/03/02 06:26:56;;;;;;;49.22;29.63;;;3.80;99.90;;;;;;5031836;28;20048;-62
2022/03/02 06:29:21;;;;;;;49.67;30.05;;;2.70;99.90;;;;;;5032825;28;20046;-62
2022/03/02 06:31:47;;;;;;;48.78;29.63;;;2.60;99.90;;;;;;5032743;28;20183;-62
2022/03/02 06:34:13;;;;;;;50.30;30.02;;;2.70;99.90;;;;;;5032540;28;20087;-62
2022/03/02 06:36:38;;;;;;;50.22;29.83;;;2.70;99.90;;;;;;5032982;28;20048;-62
2022/03/02 06:39:05;;;;;;;49.67;28.52;;;3.10;99.90;;;;;;5039702;28;20044;-62
2022/03/02 06:41:43;;;;;;;48.50;28.75;;;2.60;99.90;;;;;;5018257;28;20064;-62
2022/03/02 06:44:19;;;;;;;47.03;28.77;;;2.70;99.90;;;;;;5036088;28;20049;-62
2022/03/02 06:47:09;;;;;;;47.55;27.67;;;2.70;99.90;;;;;;5034812;28;20045;-62
2022/03/02 06:49:49;;;;;;;46.95;27.98;;;2.80;99.90;;;;;;5035929;28;20041;-62
2022/03/02 06:52:20;;;;;;;48.70;27.23;;;2.80;99.90;;;;;;5035478;28;20041;-62
2022/03/02 06:54:48;;;;;;;42.13;27.48;;;2.80;99.90;;;;;;5034831;28;20045;-62
2022/03/02 06:57:18;;;;;;;47.58;29.13;;;2.80;99.90;;;;;;5035472;28;20043;-62
2022/03/02 06:59:53;;;;;;;46.33;28.17;;;2.80;99.90;;;;;;5035270;28;20175;-62
2022/03/02 07:02:33;;;;;;;44.45;28.42;;;2.80;99.90;;;;;;5034807;28;20456;-62
2022/03/02 07:05:00;;;;;;;54.08;33.47;;;2.80;99.90;;;;;;5035226;28;20051;-62
2022/03/02 07:07:27;;;;;;;54.00;31.83;;;2.80;99.90;;;;;;5035348;28;20148;-62
2022/03/02 07:09:53;;;;;;;59.25;36.25;;;2.80;99.90;;;;;;5052296;28;20037;-62
2022/03/02 07:12:20;;;;;;;49.47;30.92;;;3.00;99.90;;;;;;5035046;28;20049;-62
2022/03/02 07:14:45;;;;;;;45.75;27.98;;;2.90;99.90;;;;;;5052217;28;20114;-62
2022/03/02 07:17:11;;;;;;;45.00;28.08;;;2.90;99.90;;;;;;5034864;28;20478;-62
2022/03/02 07:19:37;;;;;;;53.40;28.17;;;3.00;99.90;;;;;;5035710;28;20072;-62
2022/03/02 07:22:07;;;;;;;53.65;30.80;;;2.90;99.90;;;;;;5034115;28;20049;-62
2022/03/02 07:24:41;;;;;;;47.60;28.00;;;3.00;99.90;;;;;;5034800;28;20086;-62
2022/03/02 07:27:07;;;;;;;42.63;25.90;;;2.90;99.90;;;;;;5035284;28;20049;-62
2022/03/02 07:29:35;;;;;;;44.30;25.90;;;3.70;99.90;;;;;;5034184;28;20045;-64
2022/03/02 07:32:01;;;;;;;50.17;28.10;;;3.10;99.90;;;;;;5018698;28;20080;-64
2022/03/02 07:34:30;;;;;;;47.47;27.13;;;3.10;99.90;;;;;;5035120;28;20048;-64
2022/03/02 07:36:58;;;;;;;44.00;26.58;;;3.10;99.90;;;;;;5001023;28;20531;-64
2022/03/02 07:39:24;;;;;;;46.05;25.88;;;3.40;99.90;;;;;;5031197;28;20092;-64
2022/03/02 07:41:50;;;;;;;39.53;24.73;;;3.30;99.90;;;;;;5031633;28;20065;-64
2022/03/02 07:44:16;;;;;;;42.88;27.80;;;3.30;99.90;;;;;;5031660;28;20383;-64
2022/03/02 07:46:42;;;;;;;47.17;25.60;;;3.30;99.90;;;;;;5032519;28;20045;-64
2022/03/02 07:49:07;;;;;;;50.08;28.60;;;3.40;99.90;;;;;;5032417;28;20064;-64
2022/03/02 07:51:39;;;;;;;41.65;27.02;;;3.40;99.90;;;;;;5031038;28;20414;-64
2022/03/02 07:54:06;;;;;;;46.10;27.95;;;3.50;99.90;;;;;;5031614;28;20463;-64
2022/03/02 07:56:33;;;;;;;42.47;26.88;;;3.50;99.90;;;;;;5031153;28;20487;-64
2022/03/02 07:59:05;;;;;;;47.33;28.55;;;3.50;99.90;;;;;;5014040;28;20045;-82
2022/03/02 08:01:36;;;;;;;43.63;26.90;;;3.50;99.90;;;;;;5031629;28;20052;-82
2022/03/02 08:04:07;;;;;;;45.67;25.92;;;3.60;99.90;;;;;;5014882;28;20051;-82
2022/03/02 08:06:35;;;;;;;42.53;26.42;;;3.70;99.90;;;;;;5031422;28;20091;-82
2022/03/02 08:09:07;;;;;;;44.58;27.42;;;3.70;99.90;;;;;;5031137;28;20041;-82
2022/03/02 08:11:34;;;;;;;44.58;27.35;;;3.70;99.90;;;;;;5031415;28;20045;-82
2022/03/02 08:14:01;;;;;;;42.22;26.30;;;3.70;99.90;;;;;;5030815;28;20048;-82
2022/03/02 08:16:31;;;;;;;43.88;26.80;;;3.80;99.90;;;;;;5031160;28;20049;-82
2022/03/02 08:19:05;;;;;;;41.97;25.73;;;3.80;99.90;;;;;;5030108;28;20087;-80
2022/03/02 08:21:32;;;;;;;43.30;24.98;;;3.80;99.90;;;;;;5030073;28;20125;-81
2022/03/02 08:24:02;;;;;;;45.20;26.38;;;4.00;99.90;;;;;;5025407;28;20113;-79
2022/03/02 08:26:32;;;;;;;43.50;27.10;;;4.00;99.90;;;;;;5019688;28;20100;-79
2022/03/02 08:29:05;;;;;;;40.70;25.42;;;4.00;99.90;;;;;;5020524;28;20038;-78
2022/03/02 08:31:32;;;;;;;52.97;29.98;;;4.10;99.90;;;;;;5009607;28;20054;-78
2022/03/02 08:33:59;;;;;;;92.88;50.05;;;4.10;99.90;;;;;;5025746;28;20041;-78
2022/03/02 08:36:33;;;;;;;68.90;38.95;;;4.20;99.90;;;;;;5029959;28;20052;-78
2022/03/02 08:39:06;;;;;;;82.95;46.88;;;4.40;99.90;;;;;;5028441;28;20467;-76
2022/03/02 08:41:33;;;;;;;98.72;51.58;;;4.20;99.90;;;;;;5030881;28;20061;-79
2022/03/02 08:43:59;;;;;;;43.95;28.27;;;4.30;99.90;;;;;;5034005;28;20440;-79
2022/03/02 08:46:26;;;;;;;43.35;28.63;;;4.40;99.90;;;;;;5014709;28;20029;-77
2022/03/02 08:48:53;;;;;;;45.75;29.65;;;4.40;99.90;;;;;;5019526;28;20072;-78
2022/03/02 08:51:22;;;;;;;45.88;29.98;;;4.40;99.90;;;;;;5018646;28;20122;-77
2022/03/02 08:53:54;;;;;;;45.17;25.90;;;4.60;99.90;;;;;;5034813;28;20037;-76
2022/03/02 08:56:20;;;;;;;43.83;27.13;;;4.70;99.90;;;;;;5032105;28;20045;-76
2022/03/02 08:58:46;;;;;;;44.70;25.67;;;4.80;99.90;;;;;;5012454;28;20054;-76
2022/03/02 09:01:13;;;;;;;46.03;26.25;;;4.60;99.90;;;;;;5023406;28;20076;-76
2022/03/02 09:03:51;;;;;;;43.90;27.30;;;4.90;99.90;;;;;;5015612;28;20053;-76
2022/03/02 09:06:20;;;;;;;46.95;27.27;;;4.80;99.90;;;;;;5013421;28;20045;-76
2022/03/02 09:08:46;;;;;;;43.10;25.35;;;;;;;;;;5014801;28;20045;-76
2022/03/02 09:11:12;;;;;;;41.20;25.33;;;;;;;;;;4998195;28;20116;-76
2022/03/02 09:13:39;;;;;;;45.47;25.23;;;5.00;99.90;;;;;;5015423;28;20488;-76
2022/03/02 09:16:06;;;;;;;45.13;26.38;;;4.90;99.90;;;;;;5011389;28;20069;-76
2022/03/02 09:18:33;;;;;;;42.72;27.85;;;6.80;99.90;;;;;;5011985;28;20029;-76
2022/03/02 09:21:04;;;;;;;42.13;26.92;;;4.90;99.90;;;;;;5021562;28;20053;-76
2022/03/02 09:23:31;;;;;;;47.63;27.55;;;5.10;99.90;;;;;;5009272;28;20049;-76
2022/03/02 09:26:07;;;;;;;44.00;26.27;;;5.40;99.90;;;;;;5014734;28;20045;-76
2022/03/02 09:28:35;;;;;;;45.47;26.73;;;5.20;99.90;;;;;;4991911;28;20041;-76
2022/03/02 09:31:11;;;;;;;43.53;26.38;;;;;;;;;;5011303;28;20073;-76
2022/03/02 09:33:38;;;;;;;45.58;28.00;;;;;;;;;;5009462;28;20041;-76
2022/03/02 09:36:06;;;;;;;48.70;26.50;;;;;;;;;;5011958;28;20053;-76
2022/03/02 09:38:33;;;;;;;49.33;27.30;;;;;;;;;;5018842;28;20367;-77
2022/03/02 09:41:01;;;;;;;42.70;24.05;;;;;;;;;;5029585;28;20045;-77
2022/03/02 09:43:31;;;;;;;46.15;25.42;;;;;;;;;;5032944;28;20166;-77
2022/03/02 09:45:57;;;;;;;44.70;24.15;;;;;;;;;;5031499;28;20045;-77
2022/03/02 09:48:29;;;;;;;40.58;24.60;;;;;;;;;;5034654;28;20059;-76
2022/03/02 09:51:18;;;;;;;44.05;25.17;;;;;;;;;;5032988;28;20055;-76
2022/03/02 09:53:48;;;;;;;42.55;25.77;;;;;;;;;;5031674;28;20044;-77
2022/03/02 09:56:15;;;;;;;44.20;24.38;;;;;;;;;;5051498;28;21491;-75
2022/03/02 09:58:43;;;;;;;39.72;23.25;;;;;;;;;;5027463;28;20040;-76
2022/03/02 10:01:13;;;;;;;37.38;23.70;;;;;;;;;;5032599;28;20044;-76
2022/03/02 10:03:44;;;;;;;40.85;24.58;;;;;;;;;;5032854;28;20462;-76
2022/03/02 10:06:12;;;;;;;42.25;27.25;;;;;;;;;;5031602;28;20048;-76
2022/03/02 10:08:44;;;;;;;42.13;25.63;;;;;;;;;;5034410;28;20466;-76
2022/03/02 10:11:12;;;;;;;39.67;25.80;;;;;;;;;;5033231;28;20040;-76
2022/03/02 10:13:38;;;;;;;45.28;26.88;;;;;;;;;;5034456;28;20095;-76
2022/03/02 10:16:04;;;;;;;40.25;23.45;;;;;;;;;;5017372;28;20044;-76
2022/03/02 10:18:34;;;;;;;40.72;23.85;;;;;;;;;;5033002;28;20505;-75
2022/03/02 10:21:02;;;;;;;38.75;24.58;;;;;;;;;;5017165;28;20155;-76
2022/03/02 10:23:41;;;;;;;36.28;20.70;;;;;;;;;;5017028;28;20049;-76
2022/03/02 10:26:13;;;;;;;45.90;26.35;;;;;;;;;;5032863;28;20045;-77
2022/03/02 10:28:44;;;;;;;37.17;24.00;;;;;;;;;;5051336;28;20389;-77
2022/03/02 10:31:13;;;;;;;38.58;22.58;;;;;;;;;;5050748;28;20040;-75
2022/03/02 10:33:42;;;;;;;37.45;23.42;;;;;;;;;;5033248;28;20553;-74
2022/03/02 10:36:10;;;;;;;36.17;23.60;;;;;;;;;;5034065;28;20102;-75
2022/03/02 10:38:37;;;;;;;40.65;22.80;;;;;;;;;;5033876;28;20087;-73
2022/03/02 10:41:03;;;;;;;39.33;23.13;;;;;;;;;;5035398;28;20474;-74
2022/03/02 10:43:36;;;;;;;40.40;25.58;;;;;;;;;;5053476;28;20049;-74
2022/03/02 10:46:03;;;;;;;38.47;23.73;;;;;;;;;;5035133;28;20045;-74
2022/03/02 10:48:32;;;;;;;34.28;20.17;;;;;;;;;;5033933;28;20044;-72
2022/03/02 10:51:00;;;;;;;39.10;24.35;;;;;;;;;;5035571;28;20056;-78
2022/03/02 10:53:27;;;;;;;38.67;23.98;;;;;;;;;;5034503;28;20398;-72
2022/03/02 10:55:56;;;;;;;41.88;23.98;;;;;;;;;;5035927;28;20095;-72
2022/03/02 10:58:22;;;;;;;35.80;21.45;;;;;;;;;;5035068;28;20041;-79
2022/03/02 11:00:49;;;;;;;36.25;23.00;;;;;;;;;;5034809;28;20444;-76
2022/03/02 11:03:15;;;;;;;40.13;22.35;;;;;;;;;;5034137;28;20041;-73
2022/03/02 11:05:41;;;;;;;40.35;23.95;;;;;;;;;;5050007;28;20056;-76
2022/03/02 11:08:07;;;;;;;33.25;22.90;;;;;;;;;;5034509;28;20041;-75
2022/03/02 11:10:33;;;;;;;36.65;23.10;;;7.60;99.90;;;;;;5035376;28;20074;-77
2022/03/02 11:13:03;;;;;;;33.63;22.00;;;7.60;99.90;;;;;;5035252;28;20179;-77
2022/03/02 11:15:53;;;;;;;35.78;22.77;;;7.60;99.90;;;;;;5034482;28;20095;-77
2022/03/02 11:18:38;;;;;;;32.55;20.77;;;7.70;99.90;;;;;;5034996;28;20124;-77
2022/03/02 11:21:14;;;;;;;34.50;22.13;;;7.70;99.90;;;;;;5034569;28;20572;-76
2022/03/02 11:23:47;;;;;;;37.63;22.48;;;7.70;99.90;;;;;;5035099;28;20119;-76
2022/03/02 11:26:28;;;;;;;35.72;21.00;;;7.70;99.90;;;;;;5051833;28;20049;-76
2022/03/02 11:28:57;;;;;;;34.17;22.52;;;7.80;99.90;;;;;;5050891;28;20048;-77
2022/03/02 11:31:40;;;;;;;38.60;25.25;;;7.80;99.90;;;;;;5035182;28;20430;-76
2022/03/02 11:34:17;;;;;;;50.88;27.30;;;7.90;99.90;;;;;;5052887;28;20390;-76
2022/03/02 11:36:45;;;;;;;46.28;25.80;;;8.00;99.90;;;;;;5017624;28;20465;-76
2022/03/02 11:39:12;;;;;;;39.88;23.08;;;8.00;99.90;;;;;;5031444;28;20437;-76
2022/03/02 11:41:41;;;;;;;37.42;22.63;;;8.00;99.90;;;;;;5031751;28;20052;-77
2022/03/02 11:44:27;;;;;;;64.57;33.15;;;8.90;99.90;;;;;;5030805;28;20050;-76
2022/03/02 11:46:53;;;;;;;50.58;27.30;;;8.00;99.90;;;;;;5031414;28;20046;-76
2022/03/02 11:49:19;;;;;;;32.90;22.88;;;8.00;99.90;;;;;;5030332;28;20513;-77
2022/03/02 11:51:44;;;;;;;36.97;23.02;;;8.00;99.90;;;;;;5014703;28;20045;-76
2022/03/02 11:54:10;;;;;;;38.00;24.00;;;8.00;99.90;;;;;;5032677;28;20116;-77
2022/03/02 11:56:36;;;;;;;36.85;24.52;;;8.00;99.90;;;;;;5030714;28;20045;-76
2022/03/02 11:59:10;;;;;;;30.55;20.58;;;8.10;99.90;;;;;;5031300;28;20041;-77
2022/03/02 12:01:42;;;;;;;30.67;19.67;;;8.20;99.90;;;;;;5031560;28;20064;-76
2022/03/02 12:04:09;;;;;;;34.22;21.13;;;8.20;99.90;;;;;;5030245;28;20056;-76
2022/03/02 12:06:51;;;;;;;35.42;21.27;;;8.20;99.90;;;;;;5031664;28;20041;-77
2022/03/02 12:09:24;;;;;;;36.85;21.10;;;8.30;99.90;;;;;;5031011;28;20041;-77
2022/03/02 12:11:50;;;;;;;33.47;22.15;;;8.40;99.90;;;;;;5029330;28;20187;-78
2022/03/02 12:14:16;;;;;;;32.05;21.10;;;8.50;99.90;;;;;;5030856;28;20125;-78
2022/03/02 12:16:46;;;;;;;34.70;21.85;;;8.50;99.90;;;;;;5030736;28;20041;-78
2022/03/02 12:19:26;;;;;;;29.10;19.50;;;8.50;99.90;;;;;;5030281;28;20390;-77
2022/03/02 12:22:00;;;;;;;35.92;20.50;;;8.50;99.90;;;;;;5031040;28;20049;-77
2022/03/02 12:24:29;;;;;;;34.83;21.58;;;8.60;99.90;;;;;;5030272;28;20415;-78
2022/03/02 12:27:10;;;;;;;32.75;21.20;;;8.60;99.90;;;;;;5030826;28;20049;-77
2022/03/02 12:29:38;;;;;;;32.97;21.60;;;8.60;99.90;;;;;;5030840;28;20049;-77
2022/03/02 12:32:16;;;;;;;31.85;20.80;;;8.50;99.90;;;;;;5029942;28;20041;-78
2022/03/02 12:34:48;;;;;;;31.67;21.10;;;8.60;99.90;;;;;;5030693;28;20045;-79
2022/03/02 12:37:15;;;;;;;31.80;22.40;;;8.60;99.90;;;;;;5030834;28;20044;-79
2022/03/02 12:39:42;;;;;;;34.05;22.70;;;8.60;99.90;;;;;;5029636;28;20053;-79
2022/03/02 12:42:08;;;;;;;29.83;20.80;;;8.60;99.90;;;;;;5030678;28;20491;-78
2022/03/02 12:44:39;;;;;;;32.10;19.70;;;;;;;;;;5030778;28;20486;-78
2022/03/02 12:47:07;;;;;;;33.78;20.50;;;;;;;;;;5030287;28;20392;-78
2022/03/02 12:49:35;;;;;;;30.50;20.08;;;;;;;;;;5030777;28;20045;-77
2022/03/02 12:52:01;;;;;;;28.42;20.35;;;;;;;;;;5030497;28;20048;-77
2022/03/02 12:54:28;;;;;;;31.40;18.92;;;;;;;;;;5029756;28;20124;-78
2022/03/02 12:56:54;;;;;;;27.67;18.65;;;;;;;;;;5030476;28;20042;-77
2022/03/02 12:59:20;;;;;;;30.10;19.73;;;;;;;;;;5029734;28;20048;-78
2022/03/02 13:01:46;;;;;;;30.13;19.55;;;;;;;;;;5013872;28;20124;-78
2022/03/02 13:04:14;;;;;;;29.02;20.05;;;;;;;;;;5030487;28;20053;-78
2022/03/02 13:06:43;;;;;;;27.75;19.45;;;;;;;;;;5029560;28;20053;-78
2022/03/02 13:09:12;;;;;;;29.83;18.88;;;;;;;;;;5030279;28;20104;-78